createdAt,value
2019-02-11T00:02:06.043Z,1.40
2019-02-11T00:07:12.372Z,1.47
2019-02-11T00:12:19.008Z,2.20
2019-02-11T00:17:24.793Z,1.77
2019-02-11T00:22:30.493Z,1.30
2019-02-11T00:27:36.472Z,1.13
2019-02-11T00:32:45.304Z,1.20
2019-02-11T00:37:51.296Z,1.60
2019-02-11T00:42:57.745Z,1.30
2019-02-11T00:48:03.992Z,1.10
2019-02-11T00:53:10.467Z,1.73
2019-02-11T00:58:19.017Z,2.27
2019-02-11T01:03:25.777Z,2.30
2019-02-11T01:08:34.008Z,2.50
2019-02-11T01:13:40.445Z,2.83
2019-02-11T01:18:47.224Z,2.90
2019-02-11T01:24:08.573Z,3.10
2019-02-11T01:29:14.545Z,3.30
2019-02-11T01:34:20.356Z,3.07
2019-02-11T01:39:27.217Z,3.10
2019-02-11T01:44:34.456Z,3.90
2019-02-11T01:49:41.101Z,3.20
2019-02-11T01:54:46.498Z,3.20
2019-02-11T01:59:52.445Z,3.27
2019-02-11T02:05:01.080Z,3.20
2019-02-11T02:10:07.953Z,3.20
2019-02-11T02:15:14.706Z,2.73
2019-02-11T02:20:20.815Z,3.20
2019-02-11T02:25:26.089Z,2.57
2019-02-11T02:30:32.469Z,2.10
2019-02-11T02:35:40.075Z,1.70
2019-02-11T02:40:47.772Z,1.47
2019-02-11T02:45:53.100Z,1.13
2019-02-11T02:51:00.153Z,1.10
2019-02-11T02:56:06.084Z,1.30
2019-02-11T03:01:13.006Z,0.73
2019-02-11T03:06:18.600Z,0.70
2019-02-11T03:11:25.608Z,1.00
2019-02-11T03:16:32.088Z,0.80
2019-02-11T03:21:38.421Z,0.90
2019-02-11T03:26:44.437Z,1.13
2019-02-11T03:31:49.992Z,1.53
2019-02-11T03:36:55.877Z,2.00
2019-02-11T03:42:01.874Z,2.40
2019-02-11T03:47:07.786Z,2.00
2019-02-11T03:52:14.904Z,2.67
2019-02-11T03:57:20.375Z,3.50
2019-02-11T04:02:28.549Z,4.83
2019-02-11T04:07:35.362Z,4.20
2019-02-11T04:12:40.833Z,5.13
2019-02-11T04:17:48.287Z,4.60
2019-02-11T04:22:55.071Z,4.33
2019-02-11T04:28:03.440Z,4.03
2019-02-11T04:33:09.811Z,3.60
2019-02-11T04:38:15.886Z,3.47
2019-02-11T04:43:23.162Z,3.10
2019-02-11T04:48:28.866Z,3.20
2019-02-11T04:53:35.174Z,3.17
2019-02-11T04:58:53.490Z,2.60
2019-02-11T05:04:00.908Z,3.20
2019-02-11T05:09:07.885Z,2.63
2019-02-11T05:14:14.010Z,2.50
2019-02-11T05:19:19.956Z,2.67
2019-02-11T05:24:27.402Z,3.30
2019-02-11T05:29:33.321Z,2.30
2019-02-11T05:34:39.242Z,2.80
2019-02-11T05:39:46.009Z,2.27
2019-02-11T05:44:54.035Z,2.93
2019-02-11T05:49:58.565Z,1.80
2019-02-11T05:55:03.440Z,2.00
2019-02-11T06:00:11.363Z,2.67
2019-02-11T06:05:18.004Z,1.70
2019-02-11T06:10:23.726Z,2.20
2019-02-11T06:15:29.423Z,3.00
2019-02-11T06:20:35.075Z,4.13
2019-02-11T06:25:41.318Z,2.97
2019-02-11T06:30:48.245Z,3.20
2019-02-11T06:35:54.396Z,4.00
2019-02-11T06:40:59.694Z,5.33
2019-02-11T06:46:05.576Z,6.20
2019-02-11T06:51:11.092Z,6.10
2019-02-11T06:56:18.533Z,7.43
2019-02-11T07:01:24.699Z,7.70
2019-02-11T07:06:33.021Z,7.47
2019-02-11T07:11:38.684Z,8.30
2019-02-11T07:16:45.502Z,8.30
2019-02-11T07:21:51.118Z,8.67
2019-02-11T07:26:56.954Z,7.43
2019-02-11T07:32:02.984Z,7.43
2019-02-11T07:37:08.966Z,7.40
2019-02-11T07:42:24.992Z,7.33
2019-02-11T07:47:31.200Z,6.23
2019-02-11T07:52:36.838Z,7.40
2019-02-11T07:57:43.149Z,5.83
2019-02-11T08:02:48.264Z,5.47
2019-02-11T08:07:54.343Z,5.53
2019-02-11T08:13:02.038Z,6.03
2019-02-11T08:18:09.173Z,5.27
2019-02-11T08:23:14.993Z,6.43
2019-02-11T08:28:22.296Z,5.90
2019-02-11T08:33:30.640Z,5.97
2019-02-11T08:38:40.169Z,5.87
2019-02-11T08:43:46.600Z,6.40
2019-02-11T08:48:53.042Z,5.87
2019-02-11T08:53:59.319Z,5.80
2019-02-11T08:59:06.064Z,5.90
2019-02-11T09:04:18.800Z,5.87
2019-02-11T09:09:19.928Z,6.37
2019-02-11T09:14:25.565Z,5.77
2019-02-11T09:19:32.589Z,5.60
2019-02-11T09:24:38.900Z,5.57
2019-02-11T09:29:45.259Z,4.97
2019-02-11T09:34:51.876Z,5.33
2019-02-11T09:39:58.023Z,4.63
2019-02-11T09:45:03.496Z,4.70
2019-02-11T09:50:19.575Z,5.73
2019-02-11T09:55:29.734Z,4.37
2019-02-11T10:00:34.783Z,4.73
2019-02-11T10:05:42.182Z,4.53
2019-02-11T10:10:47.927Z,5.13
2019-02-11T10:15:52.491Z,4.40
2019-02-11T10:20:58.293Z,4.83
2019-02-11T10:26:05.850Z,4.13
2019-02-11T10:31:12.321Z,4.70
2019-02-11T10:36:18.662Z,4.60
2019-02-11T10:41:25.069Z,5.30
2019-02-11T10:46:30.201Z,4.70
2019-02-11T10:51:35.691Z,5.73
2019-02-11T10:56:42.133Z,5.57
2019-02-11T11:01:48.347Z,5.23
2019-02-11T11:06:54.149Z,5.47
2019-02-11T11:12:00.434Z,5.73
2019-02-11T11:17:08.522Z,5.53
2019-02-11T11:22:15.372Z,5.53
2019-02-11T11:27:25.264Z,5.70
2019-02-11T11:32:31.103Z,5.23
2019-02-11T11:37:36.827Z,5.50
2019-02-11T11:42:43.114Z,5.57
2019-02-11T11:47:49.319Z,5.90
2019-02-11T11:52:57.121Z,5.33
2019-02-11T11:58:02.616Z,5.77
2019-02-11T12:03:10.567Z,4.93
2019-02-11T12:08:17.044Z,4.57
2019-02-11T12:13:25.841Z,4.70
2019-02-11T12:18:33.431Z,4.50
2019-02-11T12:23:40.131Z,3.80
2019-02-11T12:28:46.290Z,3.53
2019-02-11T12:33:53.855Z,3.47
2019-02-11T12:39:00.251Z,3.13
2019-02-11T12:44:06.040Z,3.23
2019-02-11T12:49:14.069Z,2.50
2019-02-11T12:54:20.093Z,2.93
2019-02-11T12:59:26.139Z,2.90
2019-02-11T13:04:32.013Z,2.60
2019-02-11T13:09:38.351Z,2.77
2019-02-11T13:14:44.606Z,2.47
2019-02-11T13:20:06.775Z,2.00
2019-02-11T13:24:59.424Z,1.87
2019-02-11T13:30:06.079Z,2.10
2019-02-11T13:35:13.298Z,1.97
2019-02-11T13:40:19.806Z,1.90
2019-02-11T13:45:26.164Z,2.00
2019-02-11T13:50:32.551Z,1.90
2019-02-11T13:55:38.577Z,2.00
2019-02-11T14:00:49.913Z,1.57
2019-02-11T14:05:52.421Z,2.20
2019-02-11T14:10:58.384Z,1.97
2019-02-11T14:16:04.285Z,1.80
2019-02-11T14:21:09.425Z,2.03
2019-02-11T14:26:14.966Z,1.97
2019-02-11T14:31:21.404Z,2.20
2019-02-11T14:36:28.626Z,2.40
2019-02-11T14:41:37.007Z,1.87
2019-02-11T14:46:42.468Z,2.17
2019-02-11T14:51:48.231Z,2.10
2019-02-11T14:56:54.521Z,2.67
2019-02-11T15:01:59.848Z,2.00
2019-02-11T15:07:06.074Z,2.33
2019-02-11T15:12:12.250Z,1.90
2019-02-11T15:17:18.538Z,2.40
2019-02-11T15:22:25.049Z,2.60
2019-02-11T15:27:31.179Z,2.40
2019-02-11T15:32:36.960Z,2.70
2019-02-11T15:37:42.433Z,2.10
2019-02-11T15:42:47.966Z,2.27
2019-02-11T15:47:53.637Z,2.10
2019-02-11T15:52:59.610Z,1.87
2019-02-11T15:58:06.517Z,2.53
2019-02-11T16:03:12.828Z,2.47
2019-02-11T16:08:18.882Z,2.23
2019-02-11T16:13:24.285Z,2.37
2019-02-11T16:18:30.574Z,2.67
2019-02-11T16:23:36.743Z,1.87
2019-02-11T16:28:42.544Z,2.30
2019-02-11T16:33:47.822Z,1.97
2019-02-11T16:38:55.721Z,2.17
2019-02-11T16:44:01.221Z,1.93
2019-02-11T16:49:08.326Z,2.27
2019-02-11T16:54:14.475Z,2.17
2019-02-11T16:59:20.842Z,2.27
2019-02-11T17:04:26.729Z,2.10
2019-02-11T17:09:33.918Z,1.87
2019-02-11T17:14:39.778Z,1.73
2019-02-11T17:19:46.621Z,2.43
2019-02-11T17:24:52.288Z,2.07
2019-02-11T17:29:57.897Z,2.83
2019-02-11T17:35:04.319Z,2.53
2019-02-11T17:40:11.787Z,2.40
2019-02-11T17:45:20.647Z,3.10
2019-02-11T17:50:25.810Z,3.00
2019-02-11T17:55:30.821Z,2.77
2019-02-11T18:00:44.841Z,2.80
2019-02-11T18:05:51.426Z,2.83
2019-02-11T18:11:08.810Z,2.73
2019-02-11T18:16:14.693Z,2.43
2019-02-11T18:21:21.283Z,2.93
2019-02-11T18:26:26.568Z,2.80
2019-02-11T18:31:31.921Z,2.60
2019-02-11T18:36:38.676Z,2.90
2019-02-11T18:41:44.928Z,3.10
2019-02-11T18:46:50.956Z,3.27
2019-02-11T18:51:56.436Z,4.13
2019-02-11T18:57:01.865Z,3.43
2019-02-11T19:02:08.266Z,4.20
2019-02-11T19:07:13.418Z,4.50
2019-02-11T19:12:20.395Z,5.10
2019-02-11T19:17:25.686Z,4.30
2019-02-11T19:22:32.001Z,3.60
2019-02-11T19:27:37.515Z,4.03
2019-02-11T19:32:43.756Z,4.03
2019-02-11T19:37:50.172Z,4.00
2019-02-11T19:42:56.100Z,3.90
2019-02-11T19:48:01.891Z,4.37
2019-02-11T19:53:08.172Z,4.73
2019-02-11T19:58:15.038Z,4.47
2019-02-11T20:03:21.450Z,4.10
2019-02-11T20:08:28.416Z,4.30
2019-02-11T20:13:34.321Z,4.20
2019-02-11T20:18:39.681Z,4.80
2019-02-11T20:23:47.574Z,4.70
2019-02-11T20:28:52.902Z,5.17
2019-02-11T20:33:58.724Z,4.47
2019-02-11T20:39:05.325Z,4.43
2019-02-11T20:44:11.690Z,4.17
2019-02-11T20:49:16.707Z,4.30
2019-02-11T20:54:22.843Z,3.93
2019-02-11T20:59:28.848Z,4.20
2019-02-11T21:04:34.763Z,3.63
2019-02-11T21:09:40.112Z,4.20
2019-02-11T21:14:48.151Z,3.70
2019-02-11T21:19:53.564Z,4.03
2019-02-11T21:24:59.835Z,3.67
2019-02-11T21:30:06.627Z,4.30
2019-02-11T21:35:13.944Z,3.70
2019-02-11T21:40:20.839Z,3.77
2019-02-11T21:45:28.571Z,3.10
2019-02-11T21:50:34.808Z,3.03
2019-02-11T21:55:41.820Z,3.13
2019-02-11T22:00:47.869Z,3.10
2019-02-11T22:05:53.789Z,2.60
2019-02-11T22:10:59.133Z,2.53
2019-02-11T22:16:05.293Z,3.13
2019-02-11T22:21:11.069Z,3.20
2019-02-11T22:26:16.592Z,2.90
2019-02-11T22:31:22.552Z,2.33
2019-02-11T22:36:28.202Z,2.80
2019-02-11T22:41:33.608Z,2.50
2019-02-11T22:46:39.895Z,2.97
2019-02-11T22:51:45.023Z,2.67
2019-02-11T22:56:51.025Z,2.70
2019-02-11T23:01:56.550Z,2.73
2019-02-11T23:07:02.351Z,2.67
2019-02-11T23:12:08.106Z,2.83
2019-02-11T23:17:14.497Z,2.30
2019-02-11T23:22:19.952Z,2.77
2019-02-11T23:27:25.975Z,2.30
2019-02-11T23:32:31.890Z,2.20
2019-02-11T23:37:38.606Z,2.50
2019-02-11T23:42:44.601Z,2.67
2019-02-11T23:47:50.326Z,2.37
2019-02-11T23:52:56.305Z,2.70
2019-02-11T23:58:02.701Z,2.27
